createdAt,value
2018-09-05T00:00:11.211Z,15.62
2018-09-05T00:02:40.192Z,15.61
2018-09-05T00:05:09.464Z,15.51
2018-09-05T00:07:38.279Z,15.53
2018-09-05T00:10:07.073Z,15.51
2018-09-05T00:12:35.925Z,15.39
2018-09-05T00:15:04.804Z,15.41
2018-09-05T00:17:33.588Z,15.44
2018-09-05T00:20:02.377Z,15.35
2018-09-05T00:22:31.176Z,15.22
2018-09-05T00:24:59.944Z,15.27
2018-09-05T00:27:28.708Z,15.22
2018-09-05T00:29:57.524Z,15.13
2018-09-05T00:32:26.387Z,15.12
2018-09-05T00:34:55.211Z,15.17
2018-09-05T00:37:24.005Z,15.23
2018-09-05T00:39:52.788Z,15.28
2018-09-05T00:42:21.574Z,15.28
2018-09-05T00:44:50.366Z,15.25
2018-09-05T00:47:19.135Z,15.17
2018-09-05T00:49:47.897Z,15.08
2018-09-05T00:52:16.673Z,15.13
2018-09-05T00:54:45.529Z,15.18
2018-09-05T00:57:14.329Z,15.09
2018-09-05T00:59:43.084Z,15.15
2018-09-05T01:02:11.935Z,15.10
2018-09-05T01:04:40.718Z,14.99
2018-09-05T01:07:20.402Z,14.91
2018-09-05T01:09:49.160Z,14.96
2018-09-05T01:12:18.976Z,15.01
2018-09-05T01:14:47.809Z,14.86
2018-09-05T01:17:16.572Z,14.84
2018-09-05T01:19:45.372Z,14.76
2018-09-05T01:22:14.140Z,14.79
2018-09-05T01:24:42.997Z,14.75
2018-09-05T01:27:12.117Z,14.77
2018-09-05T01:29:42.113Z,14.82
2018-09-05T01:32:11.724Z,14.85
2018-09-05T01:34:41.337Z,14.82
2018-09-05T01:37:10.657Z,14.76
2018-09-05T01:39:39.469Z,14.81
2018-09-05T01:42:09.239Z,14.87
2018-09-05T01:44:38.100Z,14.87
2018-09-05T01:47:07.017Z,14.87
2018-09-05T01:49:35.848Z,14.78
2018-09-05T01:52:05.149Z,14.74
2018-09-05T01:54:34.419Z,14.72
2018-09-05T01:57:03.381Z,14.62
2018-09-05T01:59:32.339Z,14.59
2018-09-05T02:02:01.426Z,14.48
2018-09-05T02:04:30.578Z,14.49
2018-09-05T02:06:59.652Z,14.50
2018-09-05T02:09:28.796Z,14.42
2018-09-05T02:11:57.800Z,14.46
2018-09-05T02:14:26.816Z,14.40
2018-09-05T02:16:56.078Z,14.31
2018-09-05T02:19:25.332Z,14.29
2018-09-05T02:21:54.321Z,14.29
2018-09-05T02:24:23.254Z,14.23
2018-09-05T02:26:52.312Z,14.24
2018-09-05T02:29:21.039Z,14.28
2018-09-05T02:31:49.800Z,14.25
2018-09-05T02:34:18.612Z,14.28
2018-09-05T02:36:47.380Z,14.22
2018-09-05T02:39:16.156Z,14.24
2018-09-05T02:41:44.935Z,14.15
2018-09-05T02:44:20.362Z,14.09
2018-09-05T02:46:49.254Z,14.06
2018-09-05T02:49:18.089Z,14.05
2018-09-05T02:51:47.406Z,14.09
2018-09-05T02:54:16.247Z,14.10
2018-09-05T02:56:44.996Z,14.07
2018-09-05T02:59:13.759Z,14.03
2018-09-05T03:01:42.524Z,14.03
2018-09-05T03:04:11.272Z,13.97
2018-09-05T03:06:40.052Z,13.93
2018-09-05T03:09:09.451Z,13.93
2018-09-05T03:11:38.247Z,13.91
2018-09-05T03:14:07.128Z,13.94
2018-09-05T03:16:35.896Z,13.94
2018-09-05T03:19:04.697Z,13.95
2018-09-05T03:21:33.455Z,13.90
2018-09-05T03:24:02.265Z,13.87
2018-09-05T03:26:31.071Z,13.85
2018-09-05T03:28:59.834Z,13.85
2018-09-05T03:31:28.612Z,13.83
2018-09-05T03:33:57.368Z,13.79
2018-09-05T03:36:26.163Z,13.77
2018-09-05T03:38:54.904Z,13.78
2018-09-05T03:41:23.680Z,13.75
2018-09-05T03:43:52.441Z,13.74
2018-09-05T03:46:21.209Z,13.71
2018-09-05T03:48:49.996Z,13.70
2018-09-05T03:51:19.088Z,13.69
2018-09-05T03:53:49.581Z,13.65
2018-09-05T03:56:19.626Z,13.66
2018-09-05T03:58:50.228Z,13.64
2018-09-05T04:01:20.486Z,13.63
2018-09-05T04:03:50.883Z,13.58
2018-09-05T04:06:20.513Z,13.56
2018-09-05T04:08:52.510Z,13.55
2018-09-05T04:11:22.892Z,13.54
2018-09-05T04:13:52.717Z,13.56
2018-09-05T04:16:23.227Z,13.55
2018-09-05T04:18:52.786Z,13.55
2018-09-05T04:21:21.568Z,13.56
2018-09-05T04:23:50.341Z,13.50
2018-09-05T04:26:19.909Z,13.52
2018-09-05T04:28:48.679Z,13.51
2018-09-05T04:31:17.476Z,13.49
2018-09-05T04:33:46.517Z,13.40
2018-09-05T04:36:15.920Z,13.40
2018-09-05T04:38:44.773Z,13.42
2018-09-05T04:41:13.604Z,13.37
2018-09-05T04:43:43.754Z,13.30
2018-09-05T04:46:12.543Z,13.34
2018-09-05T04:48:41.452Z,13.31
2018-09-05T04:51:10.311Z,13.31
2018-09-05T04:53:39.162Z,13.33
2018-09-05T04:56:07.980Z,13.34
2018-09-05T04:58:37.262Z,13.32
2018-09-05T05:01:06.360Z,13.30
2018-09-05T05:03:35.747Z,13.27
2018-09-05T05:06:04.695Z,13.31
2018-09-05T05:08:33.543Z,13.30
2018-09-05T05:11:02.344Z,13.32
2018-09-05T05:13:31.159Z,13.40
2018-09-05T05:16:00.121Z,13.41
2018-09-05T05:18:28.923Z,13.44
2018-09-05T05:20:57.943Z,13.48
2018-09-05T05:23:27.016Z,13.56
2018-09-05T05:25:55.817Z,13.62
2018-09-05T05:28:24.865Z,13.72
2018-09-05T05:30:53.992Z,13.81
2018-09-05T05:33:22.803Z,13.82
2018-09-05T05:35:51.666Z,13.90
2018-09-05T05:38:20.469Z,14.00
2018-09-05T05:40:49.244Z,14.09
2018-09-05T05:43:18.065Z,14.19
2018-09-05T05:45:46.889Z,14.37
2018-09-05T05:48:15.691Z,14.39
2018-09-05T05:50:44.500Z,14.44
2018-09-05T05:53:13.257Z,14.51
2018-09-05T05:55:42.045Z,14.55
2018-09-05T05:58:10.806Z,14.61
2018-09-05T06:00:39.569Z,14.71
2018-09-05T06:03:08.366Z,14.97
2018-09-05T06:05:37.137Z,15.16
2018-09-05T06:08:05.928Z,15.31
2018-09-05T06:10:34.692Z,15.43
2018-09-05T06:13:03.474Z,15.48
2018-09-05T06:15:32.342Z,15.52
2018-09-05T06:18:01.113Z,15.60
2018-09-05T06:20:29.861Z,15.69
2018-09-05T06:22:58.646Z,15.73
2018-09-05T06:25:27.424Z,15.79
2018-09-05T06:27:56.250Z,15.88
2018-09-05T06:30:25.108Z,15.99
2018-09-05T06:32:53.910Z,16.04
2018-09-05T06:35:22.704Z,16.15
2018-09-05T06:37:51.483Z,16.28
2018-09-05T06:40:20.306Z,16.40
2018-09-05T06:42:49.090Z,16.56
2018-09-05T06:45:17.907Z,16.70
2018-09-05T06:47:46.676Z,16.90
2018-09-05T06:50:15.455Z,17.03
2018-09-05T06:52:44.250Z,17.74
2018-09-05T06:55:13.032Z,18.43
2018-09-05T06:57:41.849Z,19.25
2018-09-05T07:00:11.419Z,19.61
2018-09-05T07:02:40.269Z,20.15
2018-09-05T07:05:15.428Z,20.68
2018-09-05T07:07:44.271Z,21.38
2018-09-05T07:10:13.084Z,21.93
2018-09-05T07:12:41.858Z,22.15
2018-09-05T07:15:10.683Z,22.05
2018-09-05T07:17:39.496Z,22.92
2018-09-05T07:20:08.297Z,22.59
2018-09-05T07:22:37.097Z,22.38
2018-09-05T07:25:06.389Z,23.21
2018-09-05T07:27:35.236Z,23.67
2018-09-05T07:30:04.099Z,23.80
2018-09-05T07:32:32.939Z,24.27
2018-09-05T07:35:01.716Z,24.31
2018-09-05T07:37:30.497Z,24.24
2018-09-05T07:39:59.813Z,22.42
2018-09-05T07:42:28.585Z,22.39
2018-09-05T07:44:57.364Z,22.29
2018-09-05T07:47:26.216Z,22.50
2018-09-05T07:49:55.020Z,22.29
2018-09-05T07:52:23.797Z,22.98
2018-09-05T07:54:52.645Z,23.35
2018-09-05T07:57:21.633Z,23.41
2018-09-05T07:59:50.346Z,22.91
2018-09-05T08:02:19.140Z,23.79
2018-09-05T08:04:47.974Z,23.95
2018-09-05T08:07:16.769Z,22.97
2018-09-05T08:09:45.530Z,22.51
2018-09-05T08:12:47.692Z,22.85
2018-09-05T08:15:16.449Z,23.25
2018-09-05T08:17:45.308Z,23.39
2018-09-05T08:20:14.093Z,23.30
2018-09-05T08:22:42.928Z,23.54
2018-09-05T08:25:11.693Z,24.05
2018-09-05T08:27:40.452Z,23.77
2018-09-05T08:30:09.296Z,23.70
2018-09-05T08:32:38.046Z,23.44
2018-09-05T08:35:07.210Z,23.20
2018-09-05T08:37:36.133Z,23.44
2018-09-05T08:40:04.868Z,23.43
2018-09-05T08:42:35.118Z,23.50
2018-09-05T08:45:04.626Z,23.17
2018-09-05T08:47:33.325Z,23.47
2018-09-05T08:50:02.504Z,23.50
2018-09-05T08:52:31.389Z,23.68
2018-09-05T08:55:00.558Z,23.53
2018-09-05T08:57:29.338Z,23.62
2018-09-05T08:59:58.147Z,23.89
2018-09-05T09:02:26.948Z,23.49
2018-09-05T09:04:55.852Z,23.64
2018-09-05T09:07:24.604Z,24.03
2018-09-05T09:09:53.461Z,23.81
2018-09-05T09:12:22.349Z,23.99
2018-09-05T09:14:51.109Z,24.21
2018-09-05T09:17:19.881Z,24.04
2018-09-05T09:19:48.671Z,24.32
2018-09-05T09:22:17.450Z,24.70
2018-09-05T09:24:46.311Z,24.44
2018-09-05T09:27:15.168Z,24.17
2018-09-05T09:29:43.967Z,24.40
2018-09-05T09:32:12.738Z,24.27
2018-09-05T09:34:41.644Z,24.63
2018-09-05T09:37:10.440Z,24.67
2018-09-05T09:39:39.205Z,24.91
2018-09-05T09:42:08.441Z,24.94
2018-09-05T09:44:37.215Z,25.33
2018-09-05T09:47:06.039Z,25.38
2018-09-05T09:49:34.822Z,25.41
2018-09-05T09:52:08.942Z,25.35
2018-09-05T09:54:37.813Z,25.48
2018-09-05T09:57:06.613Z,25.75
2018-09-05T09:59:35.404Z,25.55
2018-09-05T10:02:09.384Z,25.78
2018-09-05T10:04:43.239Z,26.03
2018-09-05T10:07:17.156Z,26.08
2018-09-05T10:09:51.114Z,25.28
2018-09-05T10:12:25.001Z,25.81
2018-09-05T10:15:01.134Z,25.96
2018-09-05T10:17:31.164Z,26.04
2018-09-05T10:20:00.793Z,26.17
2018-09-05T10:22:30.128Z,26.53
2018-09-05T10:24:59.029Z,25.99
2018-09-05T10:27:28.506Z,25.99
2018-09-05T10:29:57.676Z,25.81
2018-09-05T10:32:26.710Z,25.52
2018-09-05T10:34:56.432Z,25.92
2018-09-05T10:37:25.396Z,26.20
2018-09-05T10:39:54.218Z,26.64
2018-09-05T10:42:22.990Z,26.40
2018-09-05T10:44:51.757Z,26.19
2018-09-05T10:47:20.533Z,25.87
2018-09-05T10:49:49.291Z,25.70
2018-09-05T10:52:18.087Z,25.58
2018-09-05T10:54:46.875Z,25.47
2018-09-05T10:57:15.680Z,25.30
2018-09-05T10:59:44.470Z,25.08
2018-09-05T11:02:13.298Z,25.04
2018-09-05T11:04:42.057Z,25.33
2018-09-05T11:07:10.830Z,25.77
2018-09-05T11:09:39.594Z,25.88
2018-09-05T11:12:08.365Z,25.99
2018-09-05T11:14:37.124Z,26.11
2018-09-05T11:17:05.946Z,26.81
2018-09-05T11:19:34.710Z,27.18
2018-09-05T11:22:03.511Z,26.80
2018-09-05T11:24:32.349Z,27.25
2018-09-05T11:27:01.149Z,27.63
2018-09-05T11:29:29.924Z,27.90
2018-09-05T11:31:58.732Z,28.29
2018-09-05T11:34:27.502Z,28.12
2018-09-05T11:36:56.333Z,27.84
2018-09-05T11:39:25.125Z,27.73
2018-09-05T11:41:53.913Z,27.57
2018-09-05T11:44:22.788Z,27.44
2018-09-05T11:46:51.567Z,27.67
2018-09-05T11:49:20.356Z,27.45
2018-09-05T11:51:49.130Z,28.02
2018-09-05T11:54:17.897Z,28.08
2018-09-05T11:56:46.669Z,28.39
2018-09-05T11:59:15.484Z,28.38
2018-09-05T12:01:44.313Z,28.20
2018-09-05T12:04:13.084Z,27.72
2018-09-05T12:06:41.936Z,27.11
2018-09-05T12:09:11.769Z,27.50
2018-09-05T12:11:40.610Z,28.08
2018-09-05T12:14:10.059Z,28.01
2018-09-05T12:16:39.119Z,28.34
2018-09-05T12:19:08.348Z,28.12
2018-09-05T12:21:37.126Z,27.70
2018-09-05T12:24:05.912Z,27.34
2018-09-05T12:26:35.029Z,27.13
2018-09-05T12:29:06.433Z,27.00
2018-09-05T12:31:35.235Z,26.88
2018-09-05T12:34:04.009Z,27.37
2018-09-05T12:36:32.777Z,27.70
2018-09-05T12:39:01.568Z,27.72
2018-09-05T12:41:30.438Z,27.88
2018-09-05T12:43:59.204Z,28.39
2018-09-05T12:46:27.972Z,28.71
2018-09-05T12:48:56.713Z,28.77
2018-09-05T12:51:25.553Z,29.07
2018-09-05T12:53:54.349Z,28.54
2018-09-05T12:56:23.142Z,28.32
2018-09-05T12:58:51.904Z,28.03
2018-09-05T13:01:20.749Z,27.97
2018-09-05T13:03:49.659Z,27.79
2018-09-05T13:06:18.469Z,27.63
2018-09-05T13:08:47.238Z,27.32
2018-09-05T13:11:16.079Z,27.03
2018-09-05T13:13:44.826Z,26.56
2018-09-05T13:16:13.592Z,26.45
2018-09-05T13:18:42.419Z,26.15
2018-09-05T13:21:11.202Z,26.12
2018-09-05T13:23:39.957Z,26.00
2018-09-05T13:26:08.739Z,26.15
2018-09-05T13:28:37.501Z,26.45
2018-09-05T13:31:06.322Z,26.62
2018-09-05T13:33:35.113Z,26.95
2018-09-05T13:36:04.108Z,27.40
2018-09-05T13:38:32.959Z,27.61
2018-09-05T13:41:01.721Z,27.79
2018-09-05T13:43:30.492Z,27.66
2018-09-05T13:45:59.257Z,28.04
2018-09-05T13:48:28.089Z,28.18
2018-09-05T13:50:56.851Z,27.80
2018-09-05T13:53:25.608Z,28.29
2018-09-05T13:55:54.393Z,28.34
2018-09-05T13:58:23.248Z,28.61
2018-09-05T14:00:52.073Z,28.42
2018-09-05T14:03:20.856Z,28.57
2018-09-05T14:05:49.624Z,28.65
2018-09-05T14:08:18.418Z,28.52
2018-09-05T14:10:47.219Z,28.45
2018-09-05T14:13:16.021Z,28.22
2018-09-05T14:15:44.795Z,28.51
2018-09-05T14:18:13.559Z,28.82
2018-09-05T14:20:42.464Z,28.84
2018-09-05T14:23:11.181Z,29.30
2018-09-05T14:25:39.943Z,28.79
2018-09-05T14:28:09.014Z,28.53
2018-09-05T14:30:37.897Z,27.80
2018-09-05T14:33:06.739Z,27.88
2018-09-05T14:35:35.493Z,27.78
2018-09-05T14:38:04.357Z,28.06
2018-09-05T14:40:33.107Z,28.41
2018-09-05T14:43:01.893Z,28.74
2018-09-05T14:45:30.668Z,29.22
2018-09-05T14:47:59.428Z,29.37
2018-09-05T14:50:28.218Z,28.82
2018-09-05T14:52:56.973Z,28.68
2018-09-05T14:55:25.729Z,28.81
2018-09-05T14:57:54.480Z,28.70
2018-09-05T15:00:23.266Z,28.50
2018-09-05T15:02:52.022Z,28.15
2018-09-05T15:05:20.806Z,28.01
2018-09-05T15:07:50.799Z,28.06
2018-09-05T15:10:19.597Z,28.35
2018-09-05T15:12:48.366Z,28.14
2018-09-05T15:15:17.695Z,27.60
2018-09-05T15:17:46.552Z,27.52
2018-09-05T15:20:15.269Z,27.08
2018-09-05T15:22:44.036Z,26.39
2018-09-05T15:25:12.793Z,26.25
2018-09-05T15:27:41.594Z,26.23
2018-09-05T15:30:10.652Z,26.01
2018-09-05T15:32:39.442Z,25.89
2018-09-05T15:35:08.244Z,25.76
2018-09-05T15:37:37.005Z,25.58
2018-09-05T15:40:06.145Z,25.40
2018-09-05T15:42:34.940Z,25.17
2018-09-05T15:45:03.721Z,25.11
2018-09-05T15:47:32.487Z,25.02
2018-09-05T15:50:01.287Z,24.88
2018-09-05T15:52:30.073Z,24.86
2018-09-05T15:54:58.821Z,24.94
2018-09-05T15:57:27.715Z,24.94
2018-09-05T15:59:56.630Z,24.94
2018-09-05T16:02:25.388Z,25.34
2018-09-05T16:04:54.133Z,25.68
2018-09-05T16:07:22.893Z,25.99
2018-09-05T16:09:51.665Z,26.13
2018-09-05T16:12:20.447Z,26.18
2018-09-05T16:14:49.213Z,26.17
2018-09-05T16:17:18.099Z,26.05
2018-09-05T16:19:46.849Z,26.17
2018-09-05T16:22:15.621Z,26.19
2018-09-05T16:24:44.381Z,25.89
2018-09-05T16:27:13.124Z,26.06
2018-09-05T16:29:41.928Z,25.83
2018-09-05T16:32:10.681Z,25.90
2018-09-05T16:34:39.464Z,25.72
2018-09-05T16:37:08.230Z,25.78
2018-09-05T16:39:37.272Z,25.80
2018-09-05T16:42:06.282Z,25.72
2018-09-05T16:44:35.256Z,25.61
2018-09-05T16:47:05.257Z,25.48
2018-09-05T16:49:34.199Z,25.47
2018-09-05T16:52:02.972Z,25.42
2018-09-05T16:54:31.927Z,25.16
2018-09-05T16:57:00.787Z,24.92
2018-09-05T16:59:29.625Z,24.91
2018-09-05T17:01:58.590Z,24.89
2018-09-05T17:04:27.407Z,24.77
2018-09-05T17:06:56.717Z,24.68
2018-09-05T17:09:25.888Z,24.53
2018-09-05T17:11:55.149Z,24.42
2018-09-05T17:14:23.936Z,24.35
2018-09-05T17:16:52.767Z,24.27
2018-09-05T17:19:21.526Z,24.05
2018-09-05T17:21:52.206Z,23.90
2018-09-05T17:24:21.058Z,23.74
2018-09-05T17:26:49.908Z,23.52
2018-09-05T17:29:18.852Z,23.43
2018-09-05T17:31:47.704Z,23.37
2018-09-05T17:34:16.532Z,23.17
2018-09-05T17:36:45.558Z,22.96
2018-09-05T17:39:14.344Z,22.85
2018-09-05T17:41:43.421Z,22.61
2018-09-05T17:44:12.604Z,22.51
2018-09-05T17:46:41.392Z,22.37
2018-09-05T17:49:10.619Z,22.22
2018-09-05T17:51:39.643Z,22.16
2018-09-05T17:54:08.427Z,21.99
2018-09-05T17:56:37.253Z,21.88
2018-09-05T17:59:06.421Z,21.83
2018-09-05T18:01:35.381Z,21.73
2018-09-05T18:04:10.601Z,21.67
2018-09-05T18:06:39.364Z,21.54
2018-09-05T18:09:09.749Z,21.43
2018-09-05T18:11:38.630Z,21.33
2018-09-05T18:14:07.497Z,21.24
2018-09-05T18:16:36.371Z,21.17
2018-09-05T18:19:05.207Z,21.06
2018-09-05T18:21:35.530Z,20.96
2018-09-05T18:24:04.637Z,20.86
2018-09-05T18:26:33.627Z,20.79
2018-09-05T18:29:02.640Z,20.68
2018-09-05T18:31:31.644Z,20.61
2018-09-05T18:34:00.413Z,20.62
2018-09-05T18:36:29.428Z,20.56
2018-09-05T18:38:58.209Z,20.55
2018-09-05T18:41:27.058Z,20.56
2018-09-05T18:43:55.846Z,20.49
2018-09-05T18:46:24.608Z,20.45
2018-09-05T18:48:53.396Z,20.48
2018-09-05T18:51:22.167Z,20.46
2018-09-05T18:53:50.961Z,20.41
2018-09-05T18:56:19.844Z,20.35
2018-09-05T18:58:48.699Z,20.31
2018-09-05T19:01:17.520Z,20.22
2018-09-05T19:03:46.389Z,20.15
2018-09-05T19:06:15.177Z,20.06
2018-09-05T19:08:44.845Z,19.97
2018-09-05T19:11:14.616Z,19.95
2018-09-05T19:13:43.382Z,19.86
2018-09-05T19:16:12.221Z,19.81
2018-09-05T19:18:41.132Z,19.75
2018-09-05T19:21:09.908Z,19.71
2018-09-05T19:23:38.708Z,19.67
2018-09-05T19:26:09.382Z,19.60
2018-09-05T19:28:38.537Z,19.58
2018-09-05T19:31:07.391Z,19.59
2018-09-05T19:33:36.456Z,19.55
2018-09-05T19:36:05.655Z,19.50
2018-09-05T19:38:34.438Z,19.42
2018-09-05T19:41:03.235Z,19.43
2018-09-05T19:43:32.055Z,19.31
2018-09-05T19:46:00.861Z,19.32
2018-09-05T19:48:29.629Z,19.26
2018-09-05T19:51:01.566Z,19.22
2018-09-05T19:53:30.471Z,19.17
2018-09-05T19:55:59.250Z,19.12
2018-09-05T19:58:28.033Z,19.10
2018-09-05T20:00:56.878Z,19.09
2018-09-05T20:03:26.609Z,19.04
2018-09-05T20:05:55.996Z,18.99
2018-09-05T20:08:25.059Z,18.95
2018-09-05T20:10:53.965Z,18.93
2018-09-05T20:13:22.798Z,18.87
2018-09-05T20:15:52.561Z,18.82
2018-09-05T20:18:21.763Z,18.84
2018-09-05T20:20:50.575Z,18.80
2018-09-05T20:23:23.722Z,18.71
2018-09-05T20:25:52.836Z,18.67
2018-09-05T20:28:21.708Z,18.60
2018-09-05T20:30:50.694Z,18.59
2018-09-05T20:33:19.500Z,18.53
2018-09-05T20:35:48.253Z,18.48
2018-09-05T20:38:17.051Z,18.49
2018-09-05T20:40:46.017Z,18.45
2018-09-05T20:43:15.409Z,18.39
2018-09-05T20:45:44.503Z,18.34
2018-09-05T20:48:13.324Z,18.34
2018-09-05T20:50:42.195Z,18.33
2018-09-05T20:53:11.142Z,18.31
2018-09-05T20:55:40.069Z,18.28
2018-09-05T20:58:10.709Z,18.22
2018-09-05T21:00:39.512Z,18.19
2018-09-05T21:03:08.300Z,18.15
2018-09-05T21:05:37.149Z,18.13
2018-09-05T21:08:06.320Z,18.10
2018-09-05T21:10:35.101Z,18.09
2018-09-05T21:13:05.666Z,18.08
2018-09-05T21:15:35.168Z,18.03
2018-09-05T21:18:04.212Z,18.02
2018-09-05T21:20:33.567Z,18.01
2018-09-05T21:23:02.770Z,17.95
2018-09-05T21:25:32.608Z,17.96
2018-09-05T21:28:01.602Z,17.88
2018-09-05T21:30:30.640Z,17.88
2018-09-05T21:32:59.755Z,17.86
2018-09-05T21:35:28.512Z,17.86
2018-09-05T21:37:57.518Z,17.80
2018-09-05T21:40:26.334Z,17.85
2018-09-05T21:42:55.088Z,17.86
2018-09-05T21:45:23.905Z,17.87
2018-09-05T21:47:52.701Z,17.81
2018-09-05T21:50:21.470Z,17.78
2018-09-05T21:52:50.335Z,18.05
2018-09-05T21:55:19.260Z,17.99
2018-09-05T21:57:48.141Z,17.89
2018-09-05T22:00:16.950Z,17.84
2018-09-05T22:02:45.728Z,17.77
2018-09-05T22:05:14.534Z,17.75
2018-09-05T22:07:43.341Z,17.71
2018-09-05T22:10:12.184Z,17.69
2018-09-05T22:12:40.948Z,17.63
2018-09-05T22:15:09.761Z,17.65
2018-09-05T22:17:39.196Z,17.67
2018-09-05T22:20:08.685Z,17.62
2018-09-05T22:22:37.591Z,17.57
2018-09-05T22:25:06.518Z,17.56
2018-09-05T22:27:35.295Z,17.48
2018-09-05T22:30:04.221Z,17.42
2018-09-05T22:32:33.064Z,17.43
2018-09-05T22:35:01.816Z,17.48
2018-09-05T22:37:30.705Z,17.42
2018-09-05T22:39:59.478Z,17.39
2018-09-05T22:42:30.373Z,17.31
2018-09-05T22:45:10.201Z,17.35
2018-09-05T22:47:54.201Z,17.43
2018-09-05T22:51:44.770Z,17.34
2018-09-05T22:56:38.485Z,17.23
2018-09-05T22:59:26.082Z,17.06
2018-09-05T23:02:07.822Z,17.00
2018-09-05T23:05:51.664Z,17.06
2018-09-05T23:08:37.740Z,17.17
2018-09-05T23:11:18.051Z,17.21
2018-09-05T23:13:58.248Z,17.14
2018-09-05T23:16:38.370Z,17.17
2018-09-05T23:19:44.471Z,17.17
2018-09-05T23:22:13.222Z,17.12
2018-09-05T23:24:41.997Z,17.13
2018-09-05T23:27:10.789Z,17.06
2018-09-05T23:29:39.602Z,17.04
2018-09-05T23:32:08.349Z,16.99
2018-09-05T23:34:37.144Z,16.91
2018-09-05T23:37:05.931Z,16.94
2018-09-05T23:39:34.690Z,16.92
2018-09-05T23:42:03.488Z,16.99
2018-09-05T23:44:32.265Z,16.97
2018-09-05T23:47:01.095Z,16.87
2018-09-05T23:49:29.973Z,16.94
2018-09-05T23:51:59.749Z,16.88
2018-09-05T23:54:28.702Z,16.86
2018-09-05T23:56:57.581Z,16.86
2018-09-05T23:59:26.365Z,16.85
